Buoy 46611

sailwx.info

Track history (hours):
 
Tides and Currents Weather Stations Pressure Air Temp Water Temp Dewpoint Dewpoint Depression Visibility Wind Speed Wind Dir Waves Ship Positions

Drifting buoy 46611

Last reported at 2015-Mar-27 08:00 UTC. Time now 2015-Mar-27 12:02 UTC.
Position N 59°51' W 147°38'.

Barometer 1004.6 mb
Water temperature 4.6 ° C

Date/timePositionNaut miles runAvg speedWind from/ knotsBaromVisibWave heightAir tempDewpointWater temp
2015-Mar-27 08:00N 59°51' W 147°38'0 0.0 1004.6 4.6
2015-Mar-27 07:00N 59°51' W 147°38'1 0.7 1004.3 4.9
2015-Mar-27 06:00N 59°50' W 147°38'0 0.2 1003.5 4.9
2015-Mar-27 04:00N 59°50' W 147°38'1 0.4 1002.0 5.5
2015-Mar-27 02:00N 59°50' W 147°38'1 0.4 1000.4 5.6
2015-Mar-27 00:00N 59°49' W 147°38'1 0.3 999.1 5.5
2015-Mar-26 22:00N 59°48' W 147°37'3 0.8 997.7 5.6
2015-Mar-26 18:00N 59°47' W 147°31'1 0.3 994.1 5.6
2015-Mar-26 15:00N 59°47' W 147°29'7 1.3 993.0 5.5
2015-Mar-26 10:00N 59°48' W 147°16'0 0.0 993.7 5.7
2015-Mar-26 07:00N 59°48' W 147°16'5 2.7 994.4 5.8
2015-Mar-26 05:00N 59°52' W 147°07'4 0.6 994.3 6.3
2015-Mar-25 23:00N 59°51' W 146°60'4 1.2 998.0 6.5
2015-Mar-25 20:00N 59°50' W 146°53'2 2.1 1001.1 6.4
2015-Mar-25 19:00N 59°50' W 146°49'1 0.3 1001.8 6.4
2015-Mar-25 17:00N 59°51' W 146°49'1 0.9 1003.2 6.5
2015-Mar-25 16:00N 59°51' W 146°47'1 0.9 1004.1 6.5
2015-Mar-25 15:00N 59°52' W 146°46'0 0.3 1005.0 6.5
2015-Mar-25 14:00N 59°52' W 146°45'0 0.2 1005.5 6.6
2015-Mar-25 12:00N 59°51' W 146°45'5 4.6 1007.4 6.6
2015-Mar-25 11:00N 59°49' W 146°37'0 0.0 1008.3 6.6
2015-Mar-25 10:00N 59°49' W 146°37'0 0.0 1009.0 6.6
2015-Mar-25 07:00N 59°49' W 146°37'0 0.0 1010.4 6.6
2015-Mar-25 06:00N 59°49' W 146°37'0 0.5 1010.6 6.6
2015-Mar-25 05:00N 59°50' W 146°37'0 0.0 1010.7 6.6
2015-Mar-25 04:00N 59°50' W 146°37'1 0.8 1011.0 6.6
2015-Mar-25 03:00N 59°50' W 146°38'1 1.0 1011.3 6.6
2015-Mar-25 02:00N 59°50' W 146°39'0 0.0 1011.8 6.6
2015-Mar-25 01:00N 59°50' W 146°39'0 0.4 1012.1 6.6
2015-Mar-25 00:00N 59°49' W 146°39'2 0.9 1012.6 6.6
2015-Mar-24 22:00N 59°47' W 146°40'0 0.0 1013.6 6.6
2015-Mar-24 21:00N 59°47' W 146°40'4 0.9 1014.0 6.6
2015-Mar-24 17:00N 59°47' W 146°33'2 2.0 1013.3 6.5
2015-Mar-24 16:00N 59°49' W 146°36'0 0.2 1013.2 6.5
2015-Mar-24 15:00N 59°49' W 146°36'2 0.2 1013.4 6.5
2015-Mar-24 04:00N 59°47' W 146°36'0 0.0 1012.9 6.6
2015-Mar-24 03:00N 59°47' W 146°36'3 0.4 1012.8 6.7
2015-Mar-23 20:00N 59°44' W 146°35'0 0.0 1013.6 6.6
2015-Mar-23 19:00N 59°44' W 146°35'2 0.9 1013.4 6.5
2015-Mar-23 17:00N 59°45' W 146°32'2 0.7 1013.2 6.5
2015-Mar-23 14:00N 59°47' W 146°33'4 0.5 1012.9 6.5
2015-Mar-23 06:00N 59°44' W 146°29'0 0.0 1014.8 6.6
2015-Mar-23 05:00N 59°44' W 146°29'1 1.2 1015.1 6.6
2015-Mar-23 04:00N 59°45' W 146°29'1 1.3 1015.2 6.6
2015-Mar-23 03:00N 59°46' W 146°30'0 0.1 1015.3 6.6
2015-Mar-23 01:00N 59°46' W 146°29'0 0.5 1015.5 6.7
2015-Mar-23 00:00N 59°46' W 146°30'2 1.1 1015.6 6.7
2015-Mar-22 22:00N 59°44' W 146°30'4 0.9 1015.9 6.7
2015-Mar-22 17:00N 59°43' W 146°22'1 0.9 1015.6 6.1
2015-Mar-22 16:00N 59°43' W 146°21'0 0.0 1015.3 6.1
2015-Mar-22 08:00N 59°43' W 146°21'1 0.5 1013.4 6.2
2015-Mar-22 06:00N 59°43' W 146°19'3 2.8 1012.4 6.2
2015-Mar-22 05:00N 59°43' W 146°14'1 0.4 1011.9 6.2
2015-Mar-22 03:00N 59°43' W 146°15'0 0.0 1010.6 6.2
2015-Mar-22 02:00N 59°43' W 146°15'1 0.7 1010.1 6.2
2015-Mar-22 00:00N 59°44' W 146°17'2 0.2 1009.2 6.2
2015-Mar-21 14:00N 59°45' W 146°14'0 0.0 1004.3 6.2
2015-Mar-21 13:00N 59°45' W 146°14'0 0.0 1003.5 6.2
2015-Mar-21 11:00N 59°45' W 146°14'1 0.3 1002.3 6.2
2015-Mar-21 08:00N 59°45' W 146°14'2 0.3 1001.5 6.2
2015-Mar-21 02:00N 59°45' W 146°11'2 0.8 1000.3 6.4
2015-Mar-21 00:00N 59°45' W 146°14'1 1.1 1000.5 6.4
2015-Mar-20 23:00N 59°46' W 146°15'3 1.4 1000.4 6.4
2015-Mar-20 21:00N 59°44' W 146°17'3 0.6 1001.6 6.2
2015-Mar-20 16:00N 59°43' W 146°12'2 1.0 1004.7 6.1
2015-Mar-20 14:00N 59°44' W 146°09'0 0.0 1006.5 6.1
2015-Mar-20 13:00N 59°44' W 146°09'4 1.9 1007.0 6.1
2015-Mar-20 11:00N 59°41' W 146°14'9 1.2 1008.6 6.1
2015-Mar-20 04:00N 59°36' W 146°01'1 0.5 1010.1 6.1
2015-Mar-20 02:00N 59°36' W 145°59'5 1.5 1010.8 6.1
2015-Mar-19 23:00N 59°40' W 145°53'1 1.2 1011.4 6.1
2015-Mar-19 22:00N 59°40' W 145°51'1 0.4 1011.5 6.1
2015-Mar-19 20:00N 59°40' W 145°53'2 1.7 1010.8 6.0
2015-Mar-19 19:00N 59°39' W 145°52'3 0.9 1010.3 6.0
2015-Mar-19 16:00N 59°37' W 145°49'12 1.4 1007.7 6.0
2015-Mar-19 07:00N 59°38' W 145°24'2 2.2 1006.7 6.6
2015-Mar-19 06:00N 59°37' W 145°20'0 0.0 1007.2 6.6
2015-Mar-19 05:00N 59°37' W 145°20'3 3.1 1007.7 6.6
2015-Mar-19 04:00N 59°37' W 145°14'0 0.1 1007.9 6.6
2015-Mar-19 03:00N 59°37' W 145°14'0 0.2 1008.3 6.6
2015-Mar-19 02:00N 59°37' W 145°14'2 1.9 1008.9 6.6
2015-Mar-19 01:00N 59°38' W 145°11'1 1.3 1009.6 6.6
2015-Mar-19 00:00N 59°38' W 145°09'0 0.0 1010.2 6.6
2015-Mar-18 23:00N 59°38' W 145°09'2 1.0 1010.7 6.7
2015-Mar-18 21:00N 59°39' W 145°05'3 2.9 1011.2 6.7
2015-Mar-18 20:00N 59°39' W 144°59'3 0.9 1011.2 6.7
2015-Mar-18 17:00N 59°38' W 144°54'2 0.9 1009.9 6.6
2015-Mar-18 15:00N 59°38' W 144°51'2 1.7 1008.3 6.6
2015-Mar-18 14:00N 59°37' W 144°48'1 1.5 1007.6 6.7
2015-Mar-18 13:00N 59°36' W 144°46'9 4.7 1007.3 6.8
2015-Mar-18 11:00N 59°37' W 144°27'7 6.8 1006.9 6.8
2015-Mar-18 10:00N 59°36' W 144°41'7 3.4 1006.8 6.8
2015-Mar-18 08:00N 59°37' W 144°27'2 1.5 1007.6 6.9
2015-Mar-18 07:00N 59°37' W 144°24'1 1.3 1008.0 7.0
2015-Mar-18 06:00N 59°37' W 144°22'0 0.0 1008.3 7.0
2015-Mar-18 05:00N 59°37' W 144°22'0 0.0 1008.6 7.0
2015-Mar-18 04:00N 59°37' W 144°22'3 3.0 1008.9 6.9
2015-Mar-18 03:00N 59°37' W 144°16'0 0.2 1009.1 6.9
2015-Mar-18 02:00N 59°37' W 144°16'1 1.3 1009.5 6.8
2015-Mar-18 01:00N 59°37' W 144°13'1 0.7 1010.1 6.7
2015-Mar-18 00:00N 59°38' W 144°12'3 2.7 1010.6 6.7
2015-Mar-17 23:00N 59°37' W 144°07'0 0.0 1011.1 6.7
2015-Mar-17 22:00N 59°37' W 144°07'2 1.8 1011.5 6.7
2015-Mar-17 21:00N 59°37' W 144°03'3 0.9 1011.8 6.7
2015-Mar-17 18:00N 59°37' W 143°58'0 0.0 1012.7 6.6
2015-Mar-17 17:00N 59°37' W 143°58'1 0.6 1013.1 6.6
2015-Mar-17 16:00N 59°37' W 143°57'1 1.3 1013.2 6.6
2015-Mar-17 15:00N 59°37' W 143°54'1 1.1 1013.5 6.6
2015-Mar-17 14:00N 59°37' W 143°52'1 1.4 1013.7 6.6
2015-Mar-17 13:00N 59°36' W 143°50'0 0.0 1013.6 6.6
2015-Mar-17 12:00N 59°36' W 143°50'5 5.4 1014.1 6.6
2015-Mar-17 11:00N 59°38' W 143°39'0 0.0 1014.3 6.7
2015-Mar-17 10:00N 59°38' W 143°39'   1014.6 6.7
Track history (hours):
 
Tides and Currents Weather Stations Pressure Air Temp Water Temp Dewpoint Dewpoint Depression Visibility Wind Speed Wind Dir Waves Ship Positions

Drifting buoy 46611

Last reported at 2015-Mar-27 08:00 UTC. Time now 2015-Mar-27 12:02 UTC.
Position N 59°51' W 147°38'.

Barometer 1004.6 mb
Water temperature 4.6 ° C

Date/timePositionNaut miles runAvg speedWind from/ knotsBaromVisibWave heightAir tempDewpointWater temp
2015-Mar-27 08:00N 59°51' W 147°38'0 0.0 1004.6 4.6
2015-Mar-27 07:00N 59°51' W 147°38'1 0.7 1004.3 4.9
2015-Mar-27 06:00N 59°50' W 147°38'0 0.2 1003.5 4.9
2015-Mar-27 04:00N 59°50' W 147°38'1 0.4 1002.0 5.5
2015-Mar-27 02:00N 59°50' W 147°38'1 0.4 1000.4 5.6
2015-Mar-27 00:00N 59°49' W 147°38'1 0.3 999.1 5.5
2015-Mar-26 22:00N 59°48' W 147°37'3 0.8 997.7 5.6
2015-Mar-26 18:00N 59°47' W 147°31'1 0.3 994.1 5.6
2015-Mar-26 15:00N 59°47' W 147°29'7 1.3 993.0 5.5
2015-Mar-26 10:00N 59°48' W 147°16'0 0.0 993.7 5.7
2015-Mar-26 07:00N 59°48' W 147°16'5 2.7 994.4 5.8
2015-Mar-26 05:00N 59°52' W 147°07'4 0.6 994.3 6.3
2015-Mar-25 23:00N 59°51' W 146°60'4 1.2 998.0 6.5
2015-Mar-25 20:00N 59°50' W 146°53'2 2.1 1001.1 6.4
2015-Mar-25 19:00N 59°50' W 146°49'1 0.3 1001.8 6.4
2015-Mar-25 17:00N 59°51' W 146°49'1 0.9 1003.2 6.5
2015-Mar-25 16:00N 59°51' W 146°47'1 0.9 1004.1 6.5
2015-Mar-25 15:00N 59°52' W 146°46'0 0.3 1005.0 6.5
2015-Mar-25 14:00N 59°52' W 146°45'0 0.2 1005.5 6.6
2015-Mar-25 12:00N 59°51' W 146°45'5 4.6 1007.4 6.6
2015-Mar-25 11:00N 59°49' W 146°37'0 0.0 1008.3 6.6
2015-Mar-25 10:00N 59°49' W 146°37'0 0.0 1009.0 6.6
2015-Mar-25 07:00N 59°49' W 146°37'0 0.0 1010.4 6.6
2015-Mar-25 06:00N 59°49' W 146°37'0 0.5 1010.6 6.6
2015-Mar-25 05:00N 59°50' W 146°37'0 0.0 1010.7 6.6
2015-Mar-25 04:00N 59°50' W 146°37'1 0.8 1011.0 6.6
2015-Mar-25 03:00N 59°50' W 146°38'1 1.0 1011.3 6.6
2015-Mar-25 02:00N 59°50' W 146°39'0 0.0 1011.8 6.6
2015-Mar-25 01:00N 59°50' W 146°39'0 0.4 1012.1 6.6
2015-Mar-25 00:00N 59°49' W 146°39'2 0.9 1012.6 6.6
2015-Mar-24 22:00N 59°47' W 146°40'0 0.0 1013.6 6.6
2015-Mar-24 21:00N 59°47' W 146°40'4 0.9 1014.0 6.6
2015-Mar-24 17:00N 59°47' W 146°33'2 2.0 1013.3 6.5
2015-Mar-24 16:00N 59°49' W 146°36'0 0.2 1013.2 6.5
2015-Mar-24 15:00N 59°49' W 146°36'2 0.2 1013.4 6.5
2015-Mar-24 04:00N 59°47' W 146°36'0 0.0 1012.9 6.6
2015-Mar-24 03:00N 59°47' W 146°36'3 0.4 1012.8 6.7
2015-Mar-23 20:00N 59°44' W 146°35'0 0.0 1013.6 6.6
2015-Mar-23 19:00N 59°44' W 146°35'2 0.9 1013.4 6.5
2015-Mar-23 17:00N 59°45' W 146°32'2 0.7 1013.2 6.5
2015-Mar-23 14:00N 59°47' W 146°33'4 0.5 1012.9 6.5
2015-Mar-23 06:00N 59°44' W 146°29'0 0.0 1014.8 6.6
2015-Mar-23 05:00N 59°44' W 146°29'1 1.2 1015.1 6.6
2015-Mar-23 04:00N 59°45' W 146°29'1 1.3 1015.2 6.6
2015-Mar-23 03:00N 59°46' W 146°30'0 0.1 1015.3 6.6
2015-Mar-23 01:00N 59°46' W 146°29'0 0.5 1015.5 6.7
2015-Mar-23 00:00N 59°46' W 146°30'2 1.1 1015.6 6.7
2015-Mar-22 22:00N 59°44' W 146°30'4 0.9 1015.9 6.7
2015-Mar-22 17:00N 59°43' W 146°22'1 0.9 1015.6 6.1
2015-Mar-22 16:00N 59°43' W 146°21'0 0.0 1015.3 6.1
2015-Mar-22 08:00N 59°43' W 146°21'1 0.5 1013.4 6.2
2015-Mar-22 06:00N 59°43' W 146°19'3 2.8 1012.4 6.2
2015-Mar-22 05:00N 59°43' W 146°14'1 0.4 1011.9 6.2
2015-Mar-22 03:00N 59°43' W 146°15'0 0.0 1010.6 6.2
2015-Mar-22 02:00N 59°43' W 146°15'1 0.7 1010.1 6.2
2015-Mar-22 00:00N 59°44' W 146°17'2 0.2 1009.2 6.2
2015-Mar-21 14:00N 59°45' W 146°14'0 0.0 1004.3 6.2
2015-Mar-21 13:00N 59°45' W 146°14'0 0.0 1003.5 6.2
2015-Mar-21 11:00N 59°45' W 146°14'1 0.3 1002.3 6.2
2015-Mar-21 08:00N 59°45' W 146°14'2 0.3 1001.5 6.2
2015-Mar-21 02:00N 59°45' W 146°11'2 0.8 1000.3 6.4
2015-Mar-21 00:00N 59°45' W 146°14'1 1.1 1000.5 6.4
2015-Mar-20 23:00N 59°46' W 146°15'3 1.4 1000.4 6.4
2015-Mar-20 21:00N 59°44' W 146°17'3 0.6 1001.6 6.2
2015-Mar-20 16:00N 59°43' W 146°12'2 1.0 1004.7 6.1
2015-Mar-20 14:00N 59°44' W 146°09'0 0.0 1006.5 6.1
2015-Mar-20 13:00N 59°44' W 146°09'4 1.9 1007.0 6.1
2015-Mar-20 11:00N 59°41' W 146°14'9 1.2 1008.6 6.1
2015-Mar-20 04:00N 59°36' W 146°01'1 0.5 1010.1 6.1
2015-Mar-20 02:00N 59°36' W 145°59'5 1.5 1010.8 6.1
2015-Mar-19 23:00N 59°40' W 145°53'1 1.2 1011.4 6.1
2015-Mar-19 22:00N 59°40' W 145°51'1 0.4 1011.5 6.1
2015-Mar-19 20:00N 59°40' W 145°53'2 1.7 1010.8 6.0
2015-Mar-19 19:00N 59°39' W 145°52'3 0.9 1010.3 6.0
2015-Mar-19 16:00N 59°37' W 145°49'12 1.4 1007.7 6.0
2015-Mar-19 07:00N 59°38' W 145°24'2 2.2 1006.7 6.6
2015-Mar-19 06:00N 59°37' W 145°20'0 0.0 1007.2 6.6
2015-Mar-19 05:00N 59°37' W 145°20'3 3.1 1007.7 6.6
2015-Mar-19 04:00N 59°37' W 145°14'0 0.1 1007.9 6.6
2015-Mar-19 03:00N 59°37' W 145°14'0 0.2 1008.3 6.6
2015-Mar-19 02:00N 59°37' W 145°14'2 1.9 1008.9 6.6
2015-Mar-19 01:00N 59°38' W 145°11'1 1.3 1009.6 6.6
2015-Mar-19 00:00N 59°38' W 145°09'0 0.0 1010.2 6.6
2015-Mar-18 23:00N 59°38' W 145°09'2 1.0 1010.7 6.7
2015-Mar-18 21:00N 59°39' W 145°05'3 2.9 1011.2 6.7
2015-Mar-18 20:00N 59°39' W 144°59'3 0.9 1011.2 6.7
2015-Mar-18 17:00N 59°38' W 144°54'2 0.9 1009.9 6.6
2015-Mar-18 15:00N 59°38' W 144°51'2 1.7 1008.3 6.6
2015-Mar-18 14:00N 59°37' W 144°48'1 1.5 1007.6 6.7
2015-Mar-18 13:00N 59°36' W 144°46'9 4.7 1007.3 6.8
2015-Mar-18 11:00N 59°37' W 144°27'7 6.8 1006.9 6.8
2015-Mar-18 10:00N 59°36' W 144°41'7 3.4 1006.8 6.8
2015-Mar-18 08:00N 59°37' W 144°27'2 1.5 1007.6 6.9
2015-Mar-18 07:00N 59°37' W 144°24'1 1.3 1008.0 7.0
2015-Mar-18 06:00N 59°37' W 144°22'0 0.0 1008.3 7.0
2015-Mar-18 05:00N 59°37' W 144°22'0 0.0 1008.6 7.0
2015-Mar-18 04:00N 59°37' W 144°22'3 3.0 1008.9 6.9
2015-Mar-18 03:00N 59°37' W 144°16'0 0.2 1009.1 6.9
2015-Mar-18 02:00N 59°37' W 144°16'1 1.3 1009.5 6.8
2015-Mar-18 01:00N 59°37' W 144°13'1 0.7 1010.1 6.7
2015-Mar-18 00:00N 59°38' W 144°12'3 2.7 1010.6 6.7
2015-Mar-17 23:00N 59°37' W 144°07'0 0.0 1011.1 6.7
2015-Mar-17 22:00N 59°37' W 144°07'2 1.8 1011.5 6.7
2015-Mar-17 21:00N 59°37' W 144°03'3 0.9 1011.8 6.7
2015-Mar-17 18:00N 59°37' W 143°58'0 0.0 1012.7 6.6
2015-Mar-17 17:00N 59°37' W 143°58'1 0.6 1013.1 6.6
2015-Mar-17 16:00N 59°37' W 143°57'1 1.3 1013.2 6.6
2015-Mar-17 15:00N 59°37' W 143°54'1 1.1 1013.5 6.6
2015-Mar-17 14:00N 59°37' W 143°52'1 1.4 1013.7 6.6
2015-Mar-17 13:00N 59°36' W 143°50'0 0.0 1013.6 6.6
2015-Mar-17 12:00N 59°36' W 143°50'5 5.4 1014.1 6.6
2015-Mar-17 11:00N 59°38' W 143°39'0 0.0 1014.3 6.7
2015-Mar-17 10:00N 59°38' W 143°39'   1014.6 6.7

Dump ship's entire track history